sensor_id;sensor_type;location;lat;lon;timestamp;temperature;humidity
963;DHT22;469;48.770;9.176;2023-03-01T13:37:24;7.00;1.00
963;DHT22;469;48.770;9.176;2023-03-01T21:50:07;8.20;1.00
963;DHT22;469;48.770;9.176;2023-03-01T21:52:48;3.00;1.00
963;DHT22;469;48.770;9.176;2023-03-01T21:55:22;3.00;1.00
963;DHT22;469;48.770;9.176;2023-03-01T21:57:51;3.00;1.00
963;DHT22;469;48.770;9.176;2023-03-01T22:00:51;2.90;1.00
963;DHT22;469;48.770;9.176;2023-03-01T22:03:33;2.80;1.00
963;DHT22;469;48.770;9.176;2023-03-01T22:06:25;2.80;1.00
963;DHT22;469;48.770;9.176;2023-03-01T22:09:17;2.80;1.00
963;DHT22;469;48.770;9.176;2023-03-01T22:12:01;2.70;1.00
963;DHT22;469;48.770;9.176;2023-03-01T22:14:35;2.70;1.00
963;DHT22;469;48.770;9.176;2023-03-01T22:17:17;2.60;1.00
963;DHT22;469;48.770;9.176;2023-03-01T22:19:51;2.50;1.00
963;DHT22;469;48.770;9.176;2023-03-01T22:22:31;2.50;1.00
963;DHT22;469;48.770;9.176;2023-03-01T22:25:02;2.50;1.00
963;DHT22;469;48.770;9.176;2023-03-01T22:27:36;2.40;1.00
963;DHT22;469;48.770;9.176;2023-03-01T22:30:38;2.40;1.00
963;DHT22;469;48.770;9.176;2023-03-01T22:33:17;2.30;1.00
963;DHT22;469;48.770;9.176;2023-03-01T22:35:57;2.30;1.00
963;DHT22;469;48.770;9.176;2023-03-01T22:38:25;2.30;1.00
963;DHT22;469;48.770;9.176;2023-03-01T22:41:02;2.30;1.00
963;DHT22;469;48.770;9.176;2023-03-01T22:43:36;2.30;1.00
963;DHT22;469;48.770;9.176;2023-03-01T22:46:19;2.30;1.00
963;DHT22;469;48.770;9.176;2023-03-01T22:48:56;2.20;1.00
963;DHT22;469;48.770;9.176;2023-03-01T22:51:28;2.20;1.00
963;DHT22;469;48.770;9.176;2023-03-01T22:53:56;2.20;1.00
963;DHT22;469;48.770;9.176;2023-03-01T22:56:32;2.20;1.00
963;DHT22;469;48.770;9.176;2023-03-01T22:59:07;2.20;1.00
963;DHT22;469;48.770;9.176;2023-03-01T23:01:35;2.20;1.00
963;DHT22;469;48.770;9.176;2023-03-01T23:04:02;2.20;1.00
963;DHT22;469;48.770;9.176;2023-03-01T23:06:29;2.10;1.00
963;DHT22;469;48.770;9.176;2023-03-01T23:09:00;2.10;1.00
963;DHT22;469;48.770;9.176;2023-03-01T23:11:28;2.10;1.00
963;DHT22;469;48.770;9.176;2023-03-01T23:13:58;2.10;1.00
963;DHT22;469;48.770;9.176;2023-03-01T23:16:26;2.10;1.00
963;DHT22;469;48.770;9.176;2023-03-01T23:18:53;2.10;1.00
963;DHT22;469;48.770;9.176;2023-03-01T23:21:22;2.10;1.00
963;DHT22;469;48.770;9.176;2023-03-01T23:23:50;2.10;1.00
963;DHT22;469;48.770;9.176;2023-03-01T23:26:17;2.20;1.00
963;DHT22;469;48.770;9.176;2023-03-01T23:28:47;2.10;1.00
963;DHT22;469;48.770;9.176;2023-03-01T23:31:15;2.20;1.00
963;DHT22;469;48.770;9.176;2023-03-01T23:33:46;2.20;1.00
963;DHT22;469;48.770;9.176;2023-03-01T23:36:16;2.20;1.00
963;DHT22;469;48.770;9.176;2023-03-01T23:38:43;2.20;1.00
963;DHT22;469;48.770;9.176;2023-03-01T23:41:11;2.20;1.00
963;DHT22;469;48.770;9.176;2023-03-01T23:43:37;2.20;1.00
963;DHT22;469;48.770;9.176;2023-03-01T23:46:04;2.20;1.00
963;DHT22;469;48.770;9.176;2023-03-01T23:48:32;2.30;1.00
963;DHT22;469;48.770;9.176;2023-03-01T23:51:03;2.30;1.00
963;DHT22;469;48.770;9.176;2023-03-01T23:53:31;2.30;1.00
963;DHT22;469;48.770;9.176;2023-03-01T23:55:59;2.30;1.00
963;DHT22;469;48.770;9.176;2023-03-01T23:58:26;2.30;1.00
